createdAt,value
2019-04-13T00:01:57.754Z,99.90
2019-04-13T00:04:46.129Z,99.90
2019-04-13T00:07:15.573Z,99.90
2019-04-13T00:09:45.002Z,99.90
2019-04-13T00:12:28.715Z,99.90
2019-04-13T00:14:58.149Z,99.90
2019-04-13T00:17:27.805Z,99.90
2019-04-13T00:19:57.206Z,99.90
2019-04-13T00:22:26.636Z,99.90
2019-04-13T00:24:56.042Z,99.90
2019-04-13T00:27:25.483Z,99.90
2019-04-13T00:29:54.976Z,99.90
2019-04-13T00:32:24.430Z,99.90
2019-04-13T00:34:53.861Z,99.90
2019-04-13T00:37:23.361Z,99.90
2019-04-13T00:39:52.766Z,99.90
2019-04-13T00:42:22.179Z,99.90
2019-04-13T00:44:51.614Z,99.90
2019-04-13T00:47:21.075Z,99.90
2019-04-13T00:49:50.505Z,99.90
2019-04-13T00:52:21.877Z,99.90
2019-04-13T00:54:50.976Z,99.90
2019-04-13T00:57:20.857Z,99.90
2019-04-13T00:59:50.289Z,99.90
2019-04-13T01:02:19.687Z,99.90
2019-04-13T01:04:53.633Z,99.90
2019-04-13T01:07:20.185Z,99.90
2019-04-13T01:09:49.619Z,99.90
2019-04-13T01:12:18.999Z,99.90
2019-04-13T01:14:48.417Z,99.90
2019-04-13T01:17:17.813Z,99.90
2019-04-13T01:19:47.296Z,99.90
2019-04-13T01:22:16.735Z,99.90
2019-04-13T01:24:46.089Z,99.90
2019-04-13T01:27:15.508Z,99.90
2019-04-13T01:29:44.951Z,99.90
2019-04-13T01:32:14.897Z,99.90
2019-04-13T01:34:44.316Z,99.90
2019-04-13T01:37:13.752Z,99.90
2019-04-13T01:39:43.541Z,99.90
2019-04-13T01:42:12.970Z,99.90
2019-04-13T01:44:42.387Z,99.90
2019-04-13T01:47:11.825Z,99.90
2019-04-13T01:49:41.553Z,99.90
2019-04-13T01:52:10.961Z,99.90
2019-04-13T01:54:40.403Z,99.90
2019-04-13T01:57:09.810Z,99.90
2019-04-13T01:59:39.217Z,99.90
2019-04-13T02:02:36.846Z,99.90
2019-04-13T02:05:27.474Z,99.90
2019-04-13T02:08:28.179Z,99.90
2019-04-13T02:11:01.417Z,99.90
2019-04-13T02:13:30.842Z,99.90
2019-04-13T02:16:00.286Z,99.90
2019-04-13T02:18:30.082Z,99.90
2019-04-13T02:20:59.533Z,99.90
2019-04-13T02:23:28.956Z,99.90
2019-04-13T02:25:58.419Z,99.90
2019-04-13T02:28:28.194Z,99.90
2019-04-13T02:30:57.672Z,99.90
2019-04-13T02:33:27.080Z,99.90
2019-04-13T02:35:56.506Z,99.90
2019-04-13T02:38:25.958Z,99.90
2019-04-13T02:40:55.378Z,99.90
2019-04-13T02:43:24.776Z,99.90
2019-04-13T02:45:54.233Z,99.90
2019-04-13T02:48:23.652Z,99.90
2019-04-13T02:50:53.438Z,99.90
2019-04-13T02:53:22.865Z,99.90
2019-04-13T02:55:52.279Z,99.90
2019-04-13T02:58:21.743Z,99.90
2019-04-13T03:00:51.141Z,99.90
2019-04-13T03:03:20.792Z,99.90
2019-04-13T03:05:50.169Z,99.90
2019-04-13T03:08:19.867Z,99.90
2019-04-13T03:10:49.547Z,99.90
2019-04-13T03:13:19.039Z,99.90
2019-04-13T03:16:16.590Z,99.90
2019-04-13T03:19:11.561Z,99.90
2019-04-13T03:21:41.270Z,99.90
2019-04-13T03:24:10.959Z,99.90
2019-04-13T03:26:40.377Z,99.90
2019-04-13T03:29:09.808Z,99.90
2019-04-13T03:31:39.276Z,99.90
2019-04-13T03:34:08.997Z,99.90
2019-04-13T03:36:38.444Z,99.90
2019-04-13T03:39:08.443Z,99.90
2019-04-13T03:41:38.134Z,99.90
2019-04-13T03:44:07.533Z,99.90
2019-04-13T03:46:36.945Z,99.90
2019-04-13T03:49:06.360Z,99.90
2019-04-13T03:51:35.764Z,99.90
2019-04-13T03:54:05.187Z,99.90
2019-04-13T03:56:34.950Z,99.90
2019-04-13T03:59:04.409Z,99.90
2019-04-13T04:01:33.810Z,99.90
2019-04-13T04:04:03.257Z,99.90
2019-04-13T04:06:32.754Z,99.90
2019-04-13T04:09:02.474Z,99.90
2019-04-13T04:11:32.190Z,99.90
2019-04-13T04:14:01.631Z,99.90
2019-04-13T04:16:31.053Z,99.90
2019-04-13T04:19:00.542Z,99.90
2019-04-13T04:21:29.944Z,99.90
2019-04-13T04:23:59.425Z,99.90
2019-04-13T04:26:28.871Z,99.90
2019-04-13T04:28:58.559Z,99.90
2019-04-13T04:31:27.961Z,99.90
2019-04-13T04:33:57.364Z,99.90
2019-04-13T04:36:26.764Z,99.90
2019-04-13T04:38:56.249Z,99.90
2019-04-13T04:41:25.701Z,99.90
2019-04-13T04:43:55.122Z,99.90
2019-04-13T04:46:24.856Z,99.90
2019-04-13T04:48:54.300Z,99.90
2019-04-13T04:51:42.799Z,99.90
2019-04-13T04:54:12.217Z,99.90
2019-04-13T04:56:41.688Z,99.90
2019-04-13T04:59:11.130Z,99.90
2019-04-13T05:01:40.533Z,99.90
2019-04-13T05:04:09.940Z,99.90
2019-04-13T05:06:39.331Z,99.90
2019-04-13T05:09:08.753Z,99.90
2019-04-13T05:11:38.140Z,99.90
2019-04-13T05:14:07.575Z,99.90
2019-04-13T05:16:36.995Z,99.90
2019-04-13T05:19:06.410Z,99.90
2019-04-13T05:21:35.829Z,99.90
2019-04-13T05:24:05.321Z,99.90
2019-04-13T05:26:34.715Z,99.90
2019-04-13T05:29:04.128Z,99.90
2019-04-13T05:31:33.569Z,99.90
2019-04-13T05:34:03.036Z,99.90
2019-04-13T05:36:32.783Z,99.90
2019-04-13T05:39:02.231Z,99.90
2019-04-13T05:41:31.633Z,99.90
2019-04-13T05:44:01.076Z,99.90
2019-04-13T05:46:30.474Z,99.90
2019-04-13T05:49:00.207Z,99.90
2019-04-13T05:51:29.643Z,99.90
2019-04-13T05:53:59.099Z,99.90
2019-04-13T05:56:28.497Z,99.90
2019-04-13T05:59:03.358Z,99.90
2019-04-13T06:01:29.321Z,99.90
2019-04-13T06:03:58.724Z,99.90
2019-04-13T06:06:28.129Z,99.90
2019-04-13T06:08:57.519Z,99.90
2019-04-13T06:11:26.970Z,99.90
2019-04-13T06:13:58.406Z,99.90
2019-04-13T06:16:27.511Z,99.90
2019-04-13T06:18:56.901Z,99.90
2019-04-13T06:21:26.638Z,99.90
2019-04-13T06:23:56.099Z,99.90
2019-04-13T06:26:25.517Z,99.90
2019-04-13T06:28:55.023Z,99.90
2019-04-13T06:31:42.689Z,99.90
2019-04-13T06:34:30.026Z,99.90
2019-04-13T06:37:11.363Z,99.90
2019-04-13T06:39:32.752Z,99.90
2019-04-13T06:42:01.597Z,99.90
2019-04-13T06:44:35.983Z,99.90
2019-04-13T06:47:02.133Z,99.90
2019-04-13T06:49:31.844Z,99.90
2019-04-13T06:52:01.627Z,99.90
2019-04-13T06:54:32.338Z,99.90
2019-04-13T06:57:01.785Z,99.90
2019-04-13T06:59:31.190Z,99.90
2019-04-13T07:02:00.591Z,99.90
2019-04-13T07:04:30.330Z,99.90
2019-04-13T07:07:01.362Z,99.90
2019-04-13T07:09:40.080Z,99.90
2019-04-13T07:12:30.926Z,99.90
2019-04-13T07:14:58.254Z,99.90
2019-04-13T07:17:30.682Z,99.90
2019-04-13T07:20:00.422Z,99.90
2019-04-13T07:22:29.884Z,99.90
2019-04-13T07:25:02.015Z,99.90
2019-04-13T07:27:30.601Z,99.90
2019-04-13T07:30:00.027Z,99.90
2019-04-13T07:32:29.420Z,99.90
2019-04-13T07:34:58.962Z,99.90
2019-04-13T07:37:36.587Z,99.90
2019-04-13T07:39:59.845Z,99.90
2019-04-13T07:42:29.652Z,99.90
2019-04-13T07:45:04.917Z,99.90
2019-04-13T07:47:53.301Z,99.90
2019-04-13T07:50:47.903Z,99.90
2019-04-13T07:53:21.257Z,99.90
2019-04-13T07:55:52.187Z,99.90
2019-04-13T07:58:22.124Z,99.90
2019-04-13T08:00:51.595Z,99.90
2019-04-13T08:03:21.301Z,99.90
2019-04-13T08:05:50.751Z,99.90
2019-04-13T08:08:20.204Z,99.90
2019-04-13T08:10:49.574Z,99.90
2019-04-13T08:13:18.981Z,99.90
2019-04-13T08:15:48.418Z,99.90
2019-04-13T08:18:25.834Z,99.90
2019-04-13T08:20:55.224Z,99.90
2019-04-13T08:23:24.973Z,99.90
2019-04-13T08:25:54.441Z,99.90
2019-04-13T08:28:23.905Z,99.90
2019-04-13T08:30:53.359Z,99.90
2019-04-13T08:33:22.774Z,99.90
2019-04-13T08:35:52.209Z,99.90
2019-04-13T08:38:21.643Z,99.90
2019-04-13T08:40:51.091Z,98.40
2019-04-13T08:43:20.577Z,96.60
2019-04-13T08:45:50.067Z,96.00
2019-04-13T08:48:19.474Z,97.10
2019-04-13T08:50:48.873Z,96.70
2019-04-13T08:53:18.282Z,97.60
2019-04-13T08:55:47.997Z,97.70
2019-04-13T08:58:17.398Z,99.90
2019-04-13T09:00:46.813Z,99.10
2019-04-13T09:03:16.826Z,99.00
2019-04-13T09:05:46.241Z,97.10
2019-04-13T09:08:28.864Z,99.90
2019-04-13T09:10:47.367Z,99.90
2019-04-13T09:13:17.365Z,95.80
2019-04-13T09:15:48.756Z,97.10
2019-04-13T09:18:35.854Z,95.30
2019-04-13T09:21:12.443Z,89.60
2019-04-13T09:23:45.171Z,85.70
2019-04-13T09:26:12.990Z,91.30
2019-04-13T09:28:44.077Z,83.30
2019-04-13T09:31:13.597Z,82.80
2019-04-13T09:33:44.384Z,86.90
2019-04-13T09:36:14.084Z,85.90
2019-04-13T09:38:46.691Z,94.10
2019-04-13T09:41:14.541Z,95.20
2019-04-13T09:43:58.950Z,87.40
2019-04-13T09:46:28.786Z,88.90
2019-04-13T09:48:58.207Z,81.50
2019-04-13T09:51:27.630Z,80.10
2019-04-13T09:53:57.057Z,85.60
2019-04-13T09:56:36.741Z,90.50
2019-04-13T09:58:57.540Z,94.50
2019-04-13T10:01:26.997Z,87.00
2019-04-13T10:03:56.420Z,84.70
2019-04-13T10:06:26.182Z,85.60
2019-04-13T10:08:56.435Z,84.50
2019-04-13T10:11:37.020Z,76.10
2019-04-13T10:14:35.857Z,75.30
2019-04-13T10:17:27.839Z,78.20
2019-04-13T10:19:56.440Z,77.60
2019-04-13T10:22:26.170Z,82.20
2019-04-13T10:24:55.577Z,81.80
2019-04-13T10:27:25.041Z,73.50
2019-04-13T10:29:54.827Z,76.60
2019-04-13T10:32:24.321Z,79.50
2019-04-13T10:34:53.794Z,81.80
2019-04-13T10:37:23.250Z,85.00
2019-04-13T10:39:52.686Z,81.10
2019-04-13T10:42:22.086Z,82.50
2019-04-13T10:45:29.721Z,82.20
2019-04-13T10:48:25.359Z,76.20
2019-04-13T10:51:01.107Z,75.60
2019-04-13T10:53:30.545Z,79.20
2019-04-13T10:55:59.974Z,81.10
2019-04-13T10:58:29.747Z,82.00
2019-04-13T11:00:59.256Z,84.70
2019-04-13T11:03:28.709Z,82.40
2019-04-13T11:05:58.201Z,83.00
2019-04-13T11:08:27.735Z,80.10
2019-04-13T11:10:57.549Z,79.40
2019-04-13T11:13:27.133Z,75.30
2019-04-13T11:15:56.976Z,77.40
2019-04-13T11:18:26.563Z,75.20
2019-04-13T11:20:55.929Z,76.10
2019-04-13T11:23:35.461Z,77.20
2019-04-13T11:25:58.061Z,72.40
2019-04-13T11:28:27.859Z,74.20
2019-04-13T11:30:57.329Z,74.60
2019-04-13T11:33:26.723Z,78.30
2019-04-13T11:35:56.433Z,79.70
2019-04-13T11:38:25.908Z,78.50
2019-04-13T11:41:07.140Z,75.70
2019-04-13T11:44:04.283Z,76.60
2019-04-13T11:46:57.829Z,77.70
2019-04-13T11:49:27.613Z,72.10
2019-04-13T11:51:57.030Z,74.00
2019-04-13T11:54:28.014Z,76.50
2019-04-13T11:57:17.033Z,74.40
2019-04-13T11:59:46.544Z,76.60
2019-04-13T12:02:26.693Z,75.10
2019-04-13T12:05:12.108Z,76.50
2019-04-13T12:08:03.313Z,76.70
2019-04-13T12:10:43.954Z,81.40
2019-04-13T12:13:17.434Z,76.20
2019-04-13T12:16:03.871Z,75.90
2019-04-13T12:18:42.172Z,76.00
2019-04-13T12:21:29.567Z,78.10
2019-04-13T12:24:00.309Z,78.30
2019-04-13T12:26:29.753Z,80.60
2019-04-13T12:28:59.274Z,81.50
2019-04-13T12:31:28.724Z,85.10
2019-04-13T12:34:02.974Z,83.20
2019-04-13T12:36:29.309Z,82.70
2019-04-13T12:38:59.102Z,81.70
2019-04-13T12:41:33.367Z,81.40
2019-04-13T12:44:02.772Z,80.40
2019-04-13T12:46:32.430Z,81.80
2019-04-13T12:49:01.988Z,82.80
2019-04-13T12:51:31.422Z,81.60
2019-04-13T12:54:04.208Z,81.10
2019-04-13T12:56:31.915Z,81.30
2019-04-13T12:59:01.396Z,81.20
2019-04-13T13:01:45.485Z,83.00
2019-04-13T13:04:15.490Z,82.00
2019-04-13T13:06:45.033Z,82.60
2019-04-13T13:09:15.254Z,82.40
2019-04-13T13:11:44.744Z,84.80
2019-04-13T13:14:14.191Z,83.40
2019-04-13T13:16:46.168Z,84.20
2019-04-13T13:19:15.999Z,86.50
2019-04-13T13:21:45.544Z,82.80
2019-04-13T13:24:15.009Z,85.50
2019-04-13T13:26:49.095Z,86.10
2019-04-13T13:29:15.454Z,86.30
2019-04-13T13:31:44.892Z,86.00
2019-04-13T13:34:14.319Z,81.60
2019-04-13T13:36:43.725Z,82.20
2019-04-13T13:39:13.923Z,81.90
2019-04-13T13:41:43.531Z,83.90
2019-04-13T13:44:12.921Z,81.60
2019-04-13T13:46:42.331Z,77.10
2019-04-13T13:49:13.324Z,77.50
2019-04-13T13:51:55.259Z,79.10
2019-04-13T13:54:14.173Z,79.10
2019-04-13T13:56:43.705Z,82.10
2019-04-13T13:59:13.153Z,82.70
2019-04-13T14:01:57.539Z,80.10
2019-04-13T14:04:27.110Z,80.40
2019-04-13T14:07:00.580Z,80.40
2019-04-13T14:09:28.390Z,84.60
2019-04-13T14:11:57.801Z,80.50
2019-04-13T14:14:27.638Z,79.70
2019-04-13T14:16:57.050Z,83.30
2019-04-13T14:19:27.751Z,79.00
2019-04-13T14:21:57.765Z,78.30
2019-04-13T14:24:27.231Z,78.80
2019-04-13T14:26:57.080Z,76.40
2019-04-13T14:29:27.397Z,76.00
2019-04-13T14:31:57.260Z,77.20
2019-04-13T14:34:26.683Z,75.80
2019-04-13T14:36:56.437Z,75.60
2019-04-13T14:39:25.889Z,73.30
2019-04-13T14:41:55.736Z,74.10
2019-04-13T14:44:25.150Z,74.40
2019-04-13T14:46:56.585Z,72.60
2019-04-13T14:49:28.283Z,74.40
2019-04-13T14:51:57.362Z,73.30
2019-04-13T14:54:27.263Z,75.10
2019-04-13T14:56:57.225Z,77.40
2019-04-13T14:59:27.668Z,77.50
2019-04-13T15:01:59.484Z,75.70
2019-04-13T15:04:28.991Z,75.90
2019-04-13T15:06:58.673Z,75.20
2019-04-13T15:09:28.254Z,74.40
2019-04-13T15:11:57.754Z,74.70
2019-04-13T15:14:28.138Z,75.90
2019-04-13T15:17:01.836Z,75.70
2019-04-13T15:19:38.229Z,71.70
2019-04-13T15:22:01.139Z,74.70
2019-04-13T15:24:30.788Z,76.00
2019-04-13T15:27:00.239Z,76.30
2019-04-13T15:29:32.081Z,74.30
2019-04-13T15:32:01.778Z,74.40
2019-04-13T15:34:35.764Z,76.00
2019-04-13T15:37:06.755Z,74.30
2019-04-13T15:39:38.826Z,75.00
2019-04-13T15:42:14.938Z,74.20
2019-04-13T15:44:37.200Z,75.40
2019-04-13T15:47:10.534Z,77.30
2019-04-13T15:49:38.255Z,76.40
2019-04-13T15:52:07.969Z,76.50
2019-04-13T15:54:37.415Z,75.60
2019-04-13T15:57:09.510Z,76.10
2019-04-13T15:59:41.475Z,76.00
2019-04-13T16:02:12.200Z,76.50
2019-04-13T16:04:44.477Z,77.90
2019-04-13T16:07:13.841Z,77.70
2019-04-13T16:10:01.907Z,77.50
2019-04-13T16:12:37.102Z,77.60
2019-04-13T16:15:07.626Z,77.80
2019-04-13T16:17:38.059Z,79.10
2019-04-13T16:20:07.679Z,78.30
2019-04-13T16:22:37.112Z,77.10
2019-04-13T16:25:07.500Z,78.90
2019-04-13T16:27:44.507Z,77.60
2019-04-13T16:30:45.973Z,78.40
2019-04-13T16:33:39.367Z,79.00
2019-04-13T16:36:16.818Z,79.00
2019-04-13T16:38:54.722Z,79.60
2019-04-13T16:41:19.645Z,80.40
2019-04-13T16:43:53.863Z,79.90
2019-04-13T16:46:32.234Z,81.10
2019-04-13T16:49:24.272Z,81.80
2019-04-13T16:52:17.940Z,81.90
2019-04-13T16:55:11.620Z,81.00
2019-04-13T16:58:00.792Z,81.40
2019-04-13T17:00:58.279Z,82.40
2019-04-13T17:03:48.477Z,83.60
2019-04-13T17:06:19.032Z,83.80
2019-04-13T17:08:49.139Z,84.20
2019-04-13T17:11:19.053Z,83.70
2019-04-13T17:13:49.108Z,84.90
2019-04-13T17:16:19.096Z,86.70
2019-04-13T17:19:07.578Z,86.30
2019-04-13T17:21:56.596Z,84.60
2019-04-13T17:24:34.994Z,85.40
2019-04-13T17:27:25.800Z,85.70
2019-04-13T17:30:17.521Z,85.40
2019-04-13T17:33:12.834Z,83.90
2019-04-13T17:35:43.741Z,84.40
2019-04-13T17:38:13.504Z,85.80
2019-04-13T17:40:53.642Z,86.40
2019-04-13T17:43:45.279Z,86.20
2019-04-13T17:46:25.503Z,87.60
2019-04-13T17:49:23.358Z,87.10
2019-04-13T17:52:11.255Z,88.20
2019-04-13T17:54:49.685Z,89.50
2019-04-13T17:57:35.073Z,90.00
2019-04-13T18:00:23.053Z,90.60
2019-04-13T18:03:11.335Z,91.10
2019-04-13T18:05:50.184Z,91.70
2019-04-13T18:09:03.695Z,91.90
2019-04-13T18:11:59.027Z,92.10
2019-04-13T18:14:38.304Z,92.30
2019-04-13T18:17:17.970Z,92.60
2019-04-13T18:19:48.587Z,93.10
2019-04-13T18:22:18.865Z,93.30
2019-04-13T18:24:49.193Z,93.40
2019-04-13T18:27:19.515Z,93.90
2019-04-13T18:30:00.223Z,94.00
2019-04-13T18:32:21.690Z,93.90
2019-04-13T18:34:52.213Z,93.50
2019-04-13T18:37:22.223Z,93.80
2019-04-13T18:39:54.477Z,94.20
2019-04-13T18:42:23.973Z,94.20
2019-04-13T18:44:53.586Z,94.20
2019-04-13T18:47:24.215Z,94.60
2019-04-13T18:49:55.244Z,94.60
2019-04-13T18:52:25.861Z,94.70
2019-04-13T18:54:55.607Z,94.70
2019-04-13T18:57:25.359Z,94.10
2019-04-13T18:59:56.832Z,94.90
2019-04-13T19:02:27.349Z,94.50
2019-04-13T19:04:56.818Z,95.00
2019-04-13T19:07:26.545Z,95.10
2019-04-13T19:09:56.357Z,94.70
2019-04-13T19:12:25.963Z,94.30
2019-04-13T19:14:56.045Z,94.00
2019-04-13T19:17:26.033Z,94.40
2019-04-13T19:19:56.056Z,94.60
2019-04-13T19:22:26.295Z,95.40
2019-04-13T19:24:56.192Z,95.30
2019-04-13T19:27:25.757Z,95.80
2019-04-13T19:29:55.401Z,95.90
2019-04-13T19:32:30.389Z,95.80
2019-04-13T19:35:00.130Z,96.20
2019-04-13T19:37:34.585Z,96.40
2019-04-13T19:40:04.558Z,96.60
2019-04-13T19:42:34.472Z,97.20
2019-04-13T19:45:07.231Z,97.90
2019-04-13T19:47:36.964Z,98.50
2019-04-13T19:50:07.533Z,98.90
2019-04-13T19:52:54.954Z,99.40
2019-04-13T19:55:24.490Z,99.50
2019-04-13T19:57:54.318Z,99.80
2019-04-13T20:00:35.813Z,99.90
2019-04-13T20:03:06.711Z,99.90
2019-04-13T20:05:40.301Z,99.90
2019-04-13T20:08:09.932Z,99.90
2019-04-13T20:10:39.702Z,99.90
2019-04-13T20:13:10.640Z,99.90
2019-04-13T20:15:40.436Z,99.90
2019-04-13T20:18:09.927Z,99.90
2019-04-13T20:20:39.742Z,99.90
2019-04-13T20:23:10.221Z,99.90
2019-04-13T20:25:39.677Z,99.90
2019-04-13T20:28:09.843Z,99.90
2019-04-13T20:30:39.394Z,99.90
2019-04-13T20:33:08.949Z,99.90
2019-04-13T20:35:51.480Z,99.90
2019-04-13T20:38:10.861Z,99.90
2019-04-13T20:41:06.150Z,99.90
2019-04-13T20:43:46.349Z,99.90
2019-04-13T20:46:08.069Z,99.90
2019-04-13T20:48:37.925Z,99.90
2019-04-13T20:51:08.221Z,99.90
2019-04-13T20:53:37.773Z,99.90
2019-04-13T20:56:07.706Z,99.90
2019-04-13T20:58:37.959Z,99.90
2019-04-13T21:01:08.354Z,99.90
2019-04-13T21:03:38.155Z,99.90
2019-04-13T21:06:08.689Z,99.90
2019-04-13T21:08:39.102Z,99.90
2019-04-13T21:11:08.615Z,99.90
2019-04-13T21:13:38.229Z,99.90
2019-04-13T21:16:08.277Z,99.90
2019-04-13T21:18:38.552Z,99.90
2019-04-13T21:21:08.497Z,99.90
2019-04-13T21:23:38.540Z,99.90
2019-04-13T21:26:08.744Z,99.90
2019-04-13T21:28:38.679Z,99.90
2019-04-13T21:31:08.655Z,99.90
2019-04-13T21:33:38.604Z,99.90
2019-04-13T21:36:08.819Z,99.90
2019-04-13T21:38:38.745Z,99.90
2019-04-13T21:41:08.697Z,99.90
2019-04-13T21:43:39.006Z,99.90
2019-04-13T21:46:08.795Z,99.90
2019-04-13T21:48:39.314Z,99.90
2019-04-13T21:51:26.895Z,99.90
2019-04-13T21:54:08.889Z,99.90
2019-04-13T21:56:38.421Z,99.90
2019-04-13T21:59:08.632Z,99.90
2019-04-13T22:02:02.711Z,99.90
2019-04-13T22:04:32.870Z,99.90
2019-04-13T22:07:02.672Z,99.90
2019-04-13T22:09:52.016Z,99.90
2019-04-13T22:12:22.174Z,99.90
2019-04-13T22:14:59.820Z,99.90
2019-04-13T22:17:22.985Z,99.90
2019-04-13T22:19:52.952Z,99.90
2019-04-13T22:22:22.912Z,99.90
2019-04-13T22:24:52.908Z,99.90
2019-04-13T22:27:24.668Z,99.90
2019-04-13T22:29:57.468Z,99.90
2019-04-13T22:32:51.897Z,99.90
2019-04-13T22:35:47.443Z,99.90
2019-04-13T22:38:17.594Z,99.90
2019-04-13T22:40:47.395Z,99.90
2019-04-13T22:43:17.407Z,99.90
2019-04-13T22:45:47.256Z,99.90
2019-04-13T22:48:31.786Z,99.90
2019-04-13T22:51:19.025Z,99.90
2019-04-13T22:54:14.503Z,99.90
2019-04-13T22:56:47.093Z,99.90
2019-04-13T22:59:16.521Z,99.90
2019-04-13T23:01:53.825Z,99.90
2019-04-13T23:04:42.962Z,99.90
2019-04-13T23:07:12.890Z,99.90
2019-04-13T23:09:43.117Z,99.90
2019-04-13T23:12:13.507Z,99.90
2019-04-13T23:14:54.705Z,99.90
2019-04-13T23:17:14.133Z,99.90
2019-04-13T23:19:43.648Z,99.90
2019-04-13T23:22:14.481Z,99.90
2019-04-13T23:24:45.229Z,99.90
2019-04-13T23:27:15.698Z,99.90
2019-04-13T23:29:45.422Z,99.90
2019-04-13T23:32:14.883Z,99.90
2019-04-13T23:34:44.442Z,99.90
2019-04-13T23:37:14.756Z,99.90
2019-04-13T23:39:45.263Z,99.90
2019-04-13T23:42:15.748Z,99.90
2019-04-13T23:44:46.330Z,99.90
2019-04-13T23:47:16.543Z,99.90
2019-04-13T23:49:47.113Z,99.90
2019-04-13T23:52:17.501Z,99.90
2019-04-13T23:54:54.385Z,99.90
2019-04-13T23:57:42.945Z,99.90
